Heaters, West Virginia
Current Conditions -  °F | °C
As of 3:15 AM on Monday 24 Nov 2014 (Local Time) from KW22 Reporting Station
Broken Clouds Broken Clouds  
Wind Chill: 63°   Ceiling: 5000
Heat Index: 63°   Visibility: 10mi
Dew Point: 48°   Wind: 21mph
Humidity: 59%   Direction: 190°S
Pressure: 29.5"   Gusts: NA
Location:  38.76°N, 80.64°W
Report Text: KW22 240815Z AUTO 19018KT 10SM SCT045 BKN050 BKN065 17/09 A2950 RMK AO2
Loading
Personal Weather Stations






























Interactive Weather Map New forecast layout! Learn more

10-Day Weather Forecast

Advertisements
Track Severe Weather on mobile